Time;durP1;ratioP1;P1;durP2;ratioP2;P2;SDS_P1;SDS_P2;PMS_P1;PMS_P2;Temp;Humidity;BMP_temperature;BMP_pressure;BME280_temperature;BME280_humidity;BME280_pressure;Samples;Min_cycle;Max_cycle;Signal;HPM_P1;HPM_P2
2022/08/03 00:01:28;;;;;;;5.17;2.07;;;24.70;65.60;;;;;;5046350;28;20222;-74
2022/08/03 00:03:56;;;;;;;4.50;1.90;;;24.70;66.00;;;;;;5062866;28;20606;-74
2022/08/03 00:06:23;;;;;;;3.07;2.00;;;24.60;66.00;;;;;;5049289;28;20203;-74
2022/08/03 00:08:50;;;;;;;8.43;1.90;;;24.60;66.20;;;;;;5040704;28;20205;-74
2022/08/03 00:11:17;;;;;;;6.77;2.00;;;24.50;66.50;;;;;;5045707;28;20206;-74
2022/08/03 00:13:44;;;;;;;3.70;1.70;;;24.50;66.60;;;;;;5047796;28;20632;-74
2022/08/03 00:16:12;;;;;;;3.47;1.90;;;24.50;66.40;;;;;;5048233;28;20285;-74
2022/08/03 00:18:39;;;;;;;7.20;2.40;;;24.40;66.40;;;;;;5047521;28;20596;-74
2022/08/03 00:21:06;;;;;;;5.67;2.27;;;24.40;66.50;;;;;;5050845;28;20202;-74
2022/08/03 00:23:34;;;;;;;3.50;1.67;;;24.30;66.60;;;;;;5051666;28;20623;-74
2022/08/03 00:26:21;;;;;;;5.93;1.77;;;24.30;66.70;;;;;;5048776;28;20207;-74
2022/08/03 00:28:48;;;;;;;6.03;1.90;;;24.20;67.10;;;;;;5044336;28;20201;-74
2022/08/03 00:31:16;;;;;;;7.23;1.80;;;24.20;67.40;;;;;;5052136;28;20205;-74
2022/08/03 00:34:03;;;;;;;4.53;1.80;;;24.20;67.70;;;;;;5050425;28;20218;-74
2022/08/03 00:36:31;;;;;;;6.10;2.10;;;24.20;67.90;;;;;;5046051;28;20205;-74
2022/08/03 00:38:59;;;;;;;8.63;1.93;;;24.10;68.10;;;;;;5050658;28;20198;-74
2022/08/03 00:41:26;;;;;;;6.30;2.30;;;24.20;68.20;;;;;;5060615;28;20218;-74
2022/08/03 00:43:53;;;;;;;6.13;1.90;;;24.10;68.20;;;;;;5051460;28;20191;-74
2022/08/03 00:46:21;;;;;;;3.67;1.97;;;24.10;68.40;;;;;;5048031;28;20207;-74
2022/08/03 00:48:49;;;;;;;8.37;2.50;;;24.10;68.50;;;;;;5052751;28;20221;-74
2022/08/03 00:51:17;;;;;;;9.53;2.03;;;24.10;68.70;;;;;;5043378;28;20210;-74
2022/08/03 00:53:44;;;;;;;7.63;2.20;;;24.00;68.60;;;;;;5042344;28;20207;-74
2022/08/03 00:56:16;;;;;;;4.53;1.87;;;24.00;68.20;;;;;;5055052;28;20595;-74
2022/08/03 00:58:44;;;;;;;2.83;1.63;;;24.00;67.80;;;;;;5048278;28;20234;-74
2022/08/03 01:01:11;;;;;;;2.83;1.73;;;23.90;67.80;;;;;;5044886;28;20202;-74
2022/08/03 01:03:39;;;;;;;5.27;2.03;;;23.90;68.10;;;;;;5048608;28;20191;-75
2022/08/03 01:06:38;;;;;;;3.53;2.43;;;23.80;68.30;;;;;;5056224;28;20546;-75
2022/08/03 01:09:18;;;;;;;5.07;2.03;;;23.80;68.60;;;;;;5047092;28;20202;-75
2022/08/03 01:12:05;;;;;;;7.73;2.27;;;23.80;68.40;;;;;;5042800;28;20226;-75
2022/08/03 01:14:50;;;;;;;4.87;2.40;;;23.80;68.40;;;;;;5045794;28;20199;-75
2022/08/03 01:17:31;;;;;;;4.87;1.70;;;23.70;68.50;;;;;;5047439;28;20672;-75
2022/08/03 01:20:04;;;;;;;6.47;2.00;;;23.70;68.90;;;;;;5040486;28;20276;-75
2022/08/03 01:23:00;;;;;;;2.73;2.10;;;23.60;69.30;;;;;;5047987;28;20585;-75
2022/08/03 01:25:35;;;;;;;5.47;2.23;;;23.60;69.40;;;;;;5047455;28;20610;-74
2022/08/03 01:28:39;;;;;;;5.87;2.17;;;23.60;69.40;;;;;;5046271;28;20292;-75
2022/08/03 01:31:10;;;;;;;4.50;2.20;;;23.60;69.30;;;;;;5058353;28;20211;-75
2022/08/03 01:33:45;;;;;;;5.60;2.10;;;23.60;69.50;;;;;;5052434;28;20246;-75
2022/08/03 01:36:16;;;;;;;6.13;2.20;;;23.60;69.50;;;;;;5047582;28;20284;-74
2022/08/03 01:38:49;;;;;;;4.10;1.90;;;23.60;69.50;;;;;;5042123;28;20831;-74
2022/08/03 01:41:29;;;;;;;5.37;1.90;;;23.60;69.70;;;;;;5046527;28;20636;-75
2022/08/03 01:43:58;;;;;;;8.00;2.30;;;23.50;69.90;;;;;;5045263;28;20203;-74
2022/08/03 01:46:48;;;;;;;3.63;2.43;;;23.50;69.80;;;;;;5045153;28;20206;-74
2022/08/03 01:49:16;;;;;;;5.90;2.40;;;23.50;69.70;;;;;;5042614;28;20204;-74
2022/08/03 01:51:46;;;;;;;5.23;1.60;;;23.40;69.70;;;;;;5042750;28;20628;-74
2022/08/03 01:54:36;;;;;;;8.37;2.00;;;23.40;70.10;;;;;;5058423;28;20742;-74
2022/08/03 01:57:04;;;;;;;2.70;2.30;;;23.40;70.70;;;;;;5043527;28;20198;-74
2022/08/03 01:59:34;;;;;;;7.33;2.47;;;23.40;71.50;;;;;;5047526;28;20337;-75
2022/08/03 02:02:03;;;;;;;3.77;2.20;;;23.40;71.90;;;;;;5050265;28;20601;-74
2022/08/03 02:04:52;;;;;;;2.80;2.03;;;23.40;71.60;;;;;;5043706;28;20578;-74
2022/08/03 02:07:23;;;;;;;2.30;2.10;;;23.40;71.10;;;;;;5043039;28;20233;-75
2022/08/03 02:09:51;;;;;;;4.17;2.30;;;23.40;71.10;;;;;;5042249;28;20523;-75
2022/08/03 02:12:21;;;;;;;3.77;2.20;;;23.30;71.50;;;;;;5046740;28;20310;-75
2022/08/03 02:14:49;;;;;;;5.73;2.37;;;23.30;71.70;;;;;;5040141;28;20202;-74
2022/08/03 02:17:18;;;;;;;5.33;2.53;;;23.30;71.80;;;;;;5042469;28;20207;-74
2022/08/03 02:20:08;;;;;;;3.93;2.20;;;23.20;72.00;;;;;;5047576;28;20201;-74
2022/08/03 02:22:38;;;;;;;6.17;2.00;;;23.10;72.10;;;;;;5043475;28;20674;-75
2022/08/03 02:25:09;;;;;;;11.70;2.30;;;23.10;72.00;;;;;;5045702;28;20221;-75
2022/08/03 02:27:41;;;;;;;2.83;2.17;;;23.10;72.10;;;;;;5042893;28;20569;-75
2022/08/03 02:30:12;;;;;;;5.80;2.40;;;23.00;72.30;;;;;;5046970;28;20636;-74
2022/08/03 02:32:41;;;;;;;5.00;2.33;;;23.00;72.40;;;;;;5043725;28;20214;-74
2022/08/03 02:35:14;;;;;;;7.23;2.67;;;23.10;72.40;;;;;;5047853;28;20207;-74
2022/08/03 02:37:45;;;;;;;4.27;2.67;;;23.00;72.60;;;;;;5048328;28;20256;-74
2022/08/03 02:40:19;;;;;;;7.93;2.37;;;23.10;72.90;;;;;;5046380;28;20211;-74
2022/08/03 02:42:48;;;;;;;4.40;2.00;;;23.10;72.90;;;;;;5046145;28;20286;-75
2022/08/03 02:45:17;;;;;;;6.93;2.60;;;23.10;72.50;;;;;;5043757;28;20211;-75
2022/08/03 02:47:45;;;;;;;3.23;2.17;;;23.00;71.90;;;;;;5045743;28;20233;-75
2022/08/03 02:50:22;;;;;;;6.93;2.70;;;23.00;71.90;;;;;;5054022;28;20229;-74
2022/08/03 02:52:52;;;;;;;8.77;2.93;;;23.00;72.20;;;;;;5043301;28;20222;-74
2022/08/03 02:55:22;;;;;;;4.57;2.37;;;22.90;72.60;;;;;;5051869;28;20293;-74
2022/08/03 02:57:50;;;;;;;4.10;2.20;;;22.90;72.70;;;;;;5050744;28;20191;-74
2022/08/03 03:00:17;;;;;;;6.77;2.73;;;22.90;72.60;;;;;;5039918;28;20247;-74
2022/08/03 03:03:00;;;;;;;3.80;2.63;;;22.90;72.50;;;;;;5047532;28;20234;-75
2022/08/03 03:05:27;;;;;;;4.63;2.90;;;22.90;72.60;;;;;;5045490;28;20290;-74
2022/08/03 03:08:17;;;;;;;3.83;2.67;;;22.90;72.90;;;;;;5044809;28;20604;-74
2022/08/03 03:10:54;;;;;;;4.23;2.90;;;22.90;72.70;;;;;;5045452;28;20199;-74
2022/08/03 03:13:22;;;;;;;10.17;3.63;;;22.80;73.40;;;;;;5042976;28;20269;-74
2022/08/03 03:15:52;;;;;;;3.97;2.33;;;22.80;72.80;;;;;;5044490;28;20289;-74
2022/08/03 03:18:20;;;;;;;5.83;2.40;;;22.80;73.00;;;;;;5046927;28;20196;-74
2022/08/03 03:20:51;;;;;;;4.67;2.70;;;22.80;73.30;;;;;;5046870;28;20199;-74
2022/08/03 03:23:21;;;;;;;4.07;2.60;;;22.80;73.50;;;;;;5053081;28;20211;-74
2022/08/03 03:25:49;;;;;;;6.37;2.43;;;22.80;73.30;;;;;;5035089;28;20203;-74
2022/08/03 03:28:16;;;;;;;2.77;2.57;;;22.70;73.40;;;;;;5045383;28;20281;-74
2022/08/03 03:30:43;;;;;;;4.53;2.77;;;22.70;74.30;;;;;;5050506;28;20672;-74
2022/08/03 03:33:19;;;;;;;4.67;3.20;;;22.60;73.90;;;;;;5050069;28;20222;-74
2022/08/03 03:35:46;;;;;;;5.43;2.20;;;22.60;74.10;;;;;;5046072;28;20943;-75
2022/08/03 03:38:13;;;;;;;3.63;2.23;;;22.60;74.20;;;;;;5044233;28;20195;-75
2022/08/03 03:40:40;;;;;;;10.93;2.50;;;22.60;74.10;;;;;;5047160;28;20195;-75
2022/08/03 03:43:09;;;;;;;4.47;2.40;;;22.50;74.10;;;;;;5049872;28;20221;-74
2022/08/03 03:45:39;;;;;;;11.37;2.70;;;22.50;74.20;;;;;;5047994;28;20222;-74
2022/08/03 03:48:07;;;;;;;5.10;2.87;;;22.50;74.40;;;;;;5050950;28;20207;-75
2022/08/03 03:50:35;;;;;;;4.47;2.50;;;22.50;74.70;;;;;;5048646;28;20691;-75
2022/08/03 03:53:03;;;;;;;4.43;2.80;;;22.40;74.70;;;;;;5043662;28;20219;-75
2022/08/03 03:55:36;;;;;;;7.47;2.40;;;22.50;74.70;;;;;;5051309;28;20277;-75
2022/08/03 03:58:23;;;;;;;4.03;2.50;;;22.40;74.20;;;;;;5059429;28;20215;-75
2022/08/03 04:00:52;;;;;;;3.10;2.63;;;22.40;74.10;;;;;;5044911;28;20223;-74
2022/08/03 04:03:20;;;;;;;3.63;2.80;;;22.30;74.40;;;;;;5042755;28;20277;-74
2022/08/03 04:11:19;;;;;;;6.33;2.47;;;22.30;75.20;;;;;;5049036;28;20225;-75
2022/08/03 04:14:09;;;;;;;10.60;2.57;;;22.30;75.20;;;;;;5041788;28;20215;-75
2022/08/03 04:16:43;;;;;;;3.73;2.80;;;22.20;75.10;;;;;;5040298;28;20208;-74
2022/08/03 04:19:27;;;;;;;4.50;3.30;;;22.30;75.40;;;;;;5050466;28;20203;-75
2022/08/03 04:21:57;;;;;;;3.33;2.70;;;22.30;75.50;;;;;;5051585;28;20213;-75
2022/08/03 04:24:33;;;;;;;5.23;3.23;;;22.30;75.50;;;;;;5045122;28;20214;-75
2022/08/03 04:27:05;;;;;;;7.93;3.47;;;22.30;75.80;;;;;;5046043;28;20220;-75
2022/08/03 04:29:35;;;;;;;4.17;2.90;;;22.30;75.80;;;;;;5046823;28;20213;-76
2022/08/03 04:32:15;;;;;;;5.67;3.20;;;22.40;75.80;;;;;;5054694;28;20221;-75
2022/08/03 04:34:43;;;;;;;6.87;3.27;;;22.40;75.80;;;;;;5046032;28;20648;-74
2022/08/03 04:37:17;;;;;;;6.07;3.60;;;22.40;75.60;;;;;;5061981;28;20276;-74
2022/08/03 04:39:48;;;;;;;5.20;3.33;;;22.50;75.60;;;;;;5058911;28;20203;-74
2022/08/03 04:42:17;;;;;;;8.67;4.10;;;22.50;75.60;;;;;;5044714;28;20210;-75
2022/08/03 04:44:46;;;;;;;5.13;4.13;;;22.60;75.70;;;;;;5052365;28;20698;-76
2022/08/03 04:47:14;;;;;;;3.93;3.47;;;22.70;75.70;;;;;;5044103;28;20199;-75
2022/08/03 04:49:42;;;;;;;5.67;4.17;;;22.70;76.20;;;;;;5044505;28;20229;-75
2022/08/03 04:52:09;;;;;;;4.57;3.80;;;22.80;75.50;;;;;;5057776;28;20225;-75
2022/08/03 04:54:42;;;;;;;4.93;3.53;;;22.80;75.50;;;;;;5046826;28;20231;-75
2022/08/03 04:57:16;;;;;;;6.37;4.83;;;22.90;75.50;;;;;;5049448;28;20194;-75
2022/08/03 04:59:51;;;;;;;6.20;4.93;;;22.90;75.20;;;;;;5042551;28;20238;-75
2022/08/03 05:02:24;;;;;;;6.37;5.07;;;23.00;75.10;;;;;;5050785;28;20298;-75
2022/08/03 05:04:51;;;;;;;9.17;4.90;;;23.10;74.80;;;;;;5046424;28;20203;-74
2022/08/03 05:07:18;;;;;;;5.30;4.90;;;23.20;74.50;;;;;;5045054;28;20203;-74
2022/08/03 05:09:51;;;;;;;6.57;5.30;;;23.20;74.10;;;;;;5060870;28;20214;-74
2022/08/03 05:12:29;;;;;;;6.70;5.57;;;23.40;73.80;;;;;;5038356;28;20621;-75
2022/08/03 05:15:00;;;;;;;7.93;5.13;;;23.40;73.50;;;;;;5056901;28;20203;-75
2022/08/03 05:17:27;;;;;;;6.33;5.07;;;23.50;73.30;;;;;;5042296;28;20210;-75
2022/08/03 05:19:55;;;;;;;6.10;5.50;;;23.60;73.10;;;;;;5046596;28;20288;-75
2022/08/03 05:22:22;;;;;;;7.10;5.60;;;23.70;73.00;;;;;;5055612;28;20623;-75
2022/08/03 05:24:49;;;;;;;9.70;6.23;;;23.80;73.20;;;;;;5041901;28;20286;-74
2022/08/03 05:27:18;;;;;;;6.53;5.93;;;23.90;73.10;;;;;;5054518;28;20207;-75
2022/08/03 05:29:46;;;;;;;8.33;5.87;;;24.00;72.90;;;;;;5064820;28;20641;-76
2022/08/03 05:32:14;;;;;;;8.20;6.10;;;24.10;72.70;;;;;;5040469;28;20206;-75
2022/08/03 05:34:42;;;;;;;9.97;6.13;;;24.40;72.10;;;;;;5049420;28;20305;-75
2022/08/03 05:37:09;;;;;;;7.23;5.40;;;24.60;71.40;;;;;;5042908;28;20195;-75
2022/08/03 05:39:37;;;;;;;7.97;6.17;;;24.90;70.90;;;;;;5042333;28;20538;-75
2022/08/03 05:42:04;;;;;;;7.50;5.70;;;25.10;70.20;;;;;;5040740;28;20203;-75
2022/08/03 05:44:31;;;;;;;6.87;5.67;;;25.40;69.50;;;;;;5048747;28;20532;-75
2022/08/03 05:46:58;;;;;;;6.53;5.93;;;25.60;68.80;;;;;;5042115;28;20222;-75
2022/08/03 05:49:25;;;;;;;7.90;6.00;;;25.70;68.20;;;;;;5048007;28;20805;-75
2022/08/03 05:51:52;;;;;;;6.77;6.20;;;25.80;67.80;;;;;;5046108;28;20224;-75
2022/08/03 05:54:40;;;;;;;8.07;6.20;;;25.90;67.30;;;;;;5047421;28;20232;-75
2022/08/03 05:57:23;;;;;;;7.87;6.60;;;25.90;66.60;;;;;;5059572;28;20214;-75
2022/08/03 05:59:50;;;;;;;6.87;6.23;;;25.90;66.70;;;;;;5046438;28;20861;-75
2022/08/03 06:02:23;;;;;;;5.90;5.23;;;26.00;66.90;;;;;;5042867;28;20704;-75
2022/08/03 06:04:50;;;;;;;6.53;5.83;;;26.00;66.90;;;;;;5048234;28;20199;-75
2022/08/03 06:07:17;;;;;;;9.50;6.00;;;26.20;66.60;;;;;;5042828;28;20225;-75
2022/08/03 06:09:44;;;;;;;6.50;5.83;;;26.30;66.30;;;;;;5036539;28;20198;-75
2022/08/03 06:12:35;;;;;;;11.40;5.53;;;26.50;65.80;;;;;;5051427;28;20214;-75
2022/08/03 06:15:03;;;;;;;5.87;5.23;;;26.60;65.50;;;;;;5047990;28;20230;-75
2022/08/03 06:17:30;;;;;;;6.50;4.77;;;26.70;65.30;;;;;;5045857;28;20194;-75
2022/08/03 06:20:04;;;;;;;10.40;5.00;;;26.90;65.00;;;;;;5043507;28;20229;-75
2022/08/03 06:22:31;;;;;;;6.27;4.70;;;27.00;64.20;;;;;;5050929;28;20209;-76
2022/08/03 06:24:58;;;;;;;6.43;4.60;;;27.10;63.80;;;;;;5047608;28;20208;-74
2022/08/03 06:27:32;;;;;;;7.10;4.50;;;27.20;63.70;;;;;;5042856;28;20541;-74
2022/08/03 06:30:04;;;;;;;9.73;5.60;;;27.30;63.40;;;;;;5040584;28;20209;-73
2022/08/03 06:32:32;;;;;;;7.10;5.23;;;27.30;62.10;;;;;;5046164;28;20912;-73
2022/08/03 06:34:59;;;;;;;8.07;6.13;;;27.50;62.10;;;;;;5042628;28;20311;-73
2022/08/03 06:37:27;;;;;;;11.50;5.33;;;27.60;61.80;;;;;;5048419;28;20218;-73
2022/08/03 06:39:54;;;;;;;9.23;4.00;;;27.70;61.60;;;;;;5048846;28;20227;-73
2022/08/03 06:42:22;;;;;;;5.40;4.10;;;27.80;61.80;;;;;;5037726;28;20251;-73
2022/08/03 06:44:51;;;;;;;9.60;4.77;;;27.90;61.70;;;;;;5044125;28;20684;-74
2022/08/03 06:47:18;;;;;;;5.30;3.90;;;28.10;61.00;;;;;;5048009;28;20302;-73
2022/08/03 06:49:45;;;;;;;6.60;4.27;;;28.20;60.10;;;;;;5039518;28;20220;-73
2022/08/03 06:52:32;;;;;;;5.20;3.53;;;28.30;60.00;;;;;;5046311;28;20217;-73
2022/08/03 06:55:10;;;;;;;5.57;4.00;;;28.60;59.70;;;;;;5045573;28;20579;-73
2022/08/03 06:57:37;;;;;;;6.13;3.60;;;28.70;58.50;;;;;;5042500;28;20199;-73
2022/08/03 07:00:05;;;;;;;3.77;3.40;;;28.90;58.30;;;;;;5040795;28;20236;-74
2022/08/03 07:02:41;;;;;;;6.30;3.53;;;29.00;58.20;;;;;;5045499;28;20531;-74
2022/08/03 07:05:09;;;;;;;9.67;4.33;;;29.10;57.00;;;;;;5043027;28;20289;-74
2022/08/03 07:07:37;;;;;;;4.87;3.70;;;29.20;56.80;;;;;;5046215;28;20629;-74
2022/08/03 07:10:05;;;;;;;3.47;3.17;;;29.30;57.00;;;;;;5040952;28;20212;-74
2022/08/03 07:12:33;;;;;;;5.93;3.37;;;29.40;56.90;;;;;;5041049;28;20207;-74
2022/08/03 07:15:01;;;;;;;4.80;2.90;;;29.50;56.40;;;;;;5041142;28;20595;-73
2022/08/03 07:17:31;;;;;;;5.40;3.00;;;29.60;56.30;;;;;;5045339;28;20198;-73
2022/08/03 07:19:59;;;;;;;8.73;4.33;;;29.80;55.90;;;;;;5045369;28;20565;-74
2022/08/03 07:22:27;;;;;;;5.83;3.23;;;29.90;55.10;;;;;;5046624;28;20210;-74
2022/08/03 07:24:54;;;;;;;9.77;4.60;;;30.00;54.40;;;;;;5046445;28;20615;-74
2022/08/03 07:27:21;;;;;;;5.27;3.23;;;30.10;53.90;;;;;;5048518;28;20206;-74
2022/08/03 07:29:48;;;;;;;4.13;2.77;;;30.20;54.20;;;;;;5049350;28;20198;-74
2022/08/03 07:32:15;;;;;;;3.80;3.20;;;30.30;54.00;;;;;;5057943;28;20217;-74
2022/08/03 07:34:43;;;;;;;5.97;2.87;;;30.40;53.20;;;;;;5042872;28;20584;-75
2022/08/03 07:37:10;;;;;;;6.40;5.43;;;30.50;53.80;;;;;;5051151;28;20241;-76
2022/08/03 07:39:37;;;;;;;3.27;2.60;;;30.60;53.00;;;;;;5050010;28;20665;-76
2022/08/03 07:42:04;;;;;;;12.03;4.30;;;30.70;52.00;;;;;;5043251;28;20200;-76
2022/08/03 07:44:31;;;;;;;7.33;3.50;;;30.80;52.00;;;;;;5048199;28;20207;-75
2022/08/03 07:46:58;;;;;;;6.23;2.43;;;30.90;51.90;;;;;;5045213;28;20199;-75
2022/08/03 07:49:30;;;;;;;3.07;2.30;;;30.90;51.10;;;;;;5045693;28;20195;-75
2022/08/03 07:54:43;;;;;;;2.40;1.80;;;31.00;49.60;;;;;;5059901;28;20234;-74
2022/08/03 07:57:11;;;;;;;4.87;2.47;;;31.10;48.70;;;;;;5046717;28;20233;-75
2022/08/03 07:59:38;;;;;;;2.90;2.57;;;31.10;48.90;;;;;;5053505;28;20245;-75
2022/08/03 08:02:25;;;;;;;7.37;2.40;;;31.20;49.70;;;;;;5048906;28;20191;-75
2022/08/03 08:04:52;;;;;;;3.50;2.30;;;31.40;50.00;;;;;;5054319;28;20222;-75
2022/08/03 08:07:20;;;;;;;5.93;2.80;;;31.50;49.70;;;;;;5044546;28;20245;-75
2022/08/03 08:09:47;;;;;;;3.10;2.00;;;31.60;49.00;;;;;;5049508;28;20213;-76
2022/08/03 08:12:14;;;;;;;2.87;1.80;;;31.70;48.40;;;;;;5052173;28;20293;-74
2022/08/03 08:14:45;;;;;;;2.53;1.80;;;31.80;47.70;;;;;;5055357;28;20679;-77
2022/08/03 08:17:13;;;;;;;2.90;2.00;;;31.80;47.40;;;;;;5045100;28;20206;-76
2022/08/03 08:19:40;;;;;;;2.10;1.93;;;32.00;47.10;;;;;;5046184;28;20644;-75
2022/08/03 08:22:19;;;;;;;2.13;1.47;;;32.10;46.80;;;;;;5042024;28;20199;-75
2022/08/03 08:24:56;;;;;;;3.27;1.80;;;32.20;45.70;;;;;;5052902;28;20203;-75
2022/08/03 08:27:24;;;;;;;4.07;1.90;;;32.30;44.90;;;;;;5047710;28;20294;-75
2022/08/03 08:29:51;;;;;;;4.50;2.10;;;32.40;44.80;;;;;;5049922;28;20214;-75
2022/08/03 08:32:23;;;;;;;4.10;2.27;;;32.40;44.00;;;;;;5060728;28;20207;-75
2022/08/03 08:34:50;;;;;;;1.80;1.50;;;32.50;44.30;;;;;;5043973;28;20474;-76
2022/08/03 08:37:17;;;;;;;7.97;2.37;;;32.50;45.00;;;;;;5045475;28;20214;-75
2022/08/03 08:39:44;;;;;;;4.13;1.97;;;32.60;45.00;;;;;;5048030;28;20214;-77
2022/08/03 08:42:12;;;;;;;2.20;1.83;;;32.60;44.70;;;;;;5049743;28;20206;-75
2022/08/03 08:44:39;;;;;;;2.10;1.80;;;32.70;44.80;;;;;;5060643;28;20711;-76
2022/08/03 08:47:08;;;;;;;2.17;1.90;;;32.70;44.30;;;;;;5044265;28;20202;-76
2022/08/03 08:49:38;;;;;;;3.80;1.77;;;32.80;44.70;;;;;;5051379;28;20207;-76
2022/08/03 08:52:07;;;;;;;6.50;1.87;;;32.90;44.80;;;;;;5043133;28;20222;-77
2022/08/03 08:54:59;;;;;;;4.80;1.87;;;33.10;43.70;;;;;;5045285;28;20280;-76
2022/08/03 08:57:36;;;;;;;2.63;1.80;;;33.20;43.10;;;;;;5043301;28;20282;-76
2022/08/03 09:00:13;;;;;;;2.20;1.77;;;33.30;43.40;;;;;;5042604;28;20245;-76
2022/08/03 09:02:43;;;;;;;1.90;1.63;;;33.40;43.10;;;;;;5044949;28;20278;-75
2022/08/03 09:05:16;;;;;;;4.10;1.93;;;33.40;43.40;;;;;;5057845;28;20585;-75
2022/08/03 09:07:44;;;;;;;2.63;1.77;;;33.50;43.50;;;;;;5050934;28;20210;-74
2022/08/03 09:10:13;;;;;;;2.93;1.70;;;33.60;43.60;;;;;;5039458;28;20261;-77
2022/08/03 09:12:46;;;;;;;3.33;1.80;;;33.70;43.50;;;;;;5047554;28;20225;-78
2022/08/03 09:15:16;;;;;;;2.10;1.90;;;33.90;43.20;;;;;;5050452;28;20230;-77
2022/08/03 09:17:43;;;;;;;1.90;1.70;;;34.10;43.50;;;;;;5045426;28;20551;-77
2022/08/03 09:20:17;;;;;;;3.60;2.20;;;34.10;42.90;;;;;;5042647;28;20591;-77
2022/08/03 09:23:07;;;;;;;2.33;2.13;;;34.20;43.00;;;;;;5050995;28;20209;-77
2022/08/03 09:25:58;;;;;;;2.63;1.90;;;34.20;42.90;;;;;;5054153;28;20697;-76
2022/08/03 09:28:33;;;;;;;5.37;2.13;;;34.20;43.00;;;;;;5047934;28;20242;-76
2022/08/03 09:31:41;;;;;;;1.40;1.30;;;34.20;42.90;;;;;;5046001;28;20294;-76
2022/08/03 09:34:12;;;;;;;3.80;1.80;;;34.20;42.70;;;;;;5045973;28;20222;-76
2022/08/03 09:36:41;;;;;;;3.37;2.10;;;34.30;42.50;;;;;;5050780;28;20194;-77
2022/08/03 09:39:16;;;;;;;2.63;1.80;;;34.40;42.40;;;;;;5046329;28;20199;-76
2022/08/03 09:42:03;;;;;;;3.23;1.70;;;34.50;43.20;;;;;;5040333;28;20772;-75
2022/08/03 09:44:48;;;;;;;4.10;1.77;;;34.60;42.30;;;;;;5043846;28;20605;-75
2022/08/03 09:47:27;;;;;;;2.47;2.03;;;34.80;42.50;;;;;;5060988;28;20207;-75
2022/08/03 09:50:06;;;;;;;1.67;1.57;;;34.90;42.30;;;;;;5052802;28;20253;-75
2022/08/03 09:52:37;;;;;;;3.47;1.80;;;35.00;41.20;;;;;;5042230;28;20234;-75
2022/08/03 09:55:23;;;;;;;1.70;1.60;;;35.00;41.00;;;;;;5052133;28;20237;-73
2022/08/03 09:58:13;;;;;;;1.87;1.70;;;35.00;41.20;;;;;;5047430;28;20271;-75
2022/08/03 10:01:06;;;;;;;2.73;1.80;;;35.10;41.10;;;;;;5052808;28;20238;-75
2022/08/03 10:03:58;;;;;;;1.87;1.50;;;35.10;39.50;;;;;;5037926;28;20257;-75
2022/08/03 10:06:30;;;;;;;2.87;1.97;;;35.10;39.90;;;;;;5041034;28;20289;-76
2022/08/03 10:09:10;;;;;;;3.60;1.80;;;35.20;40.70;;;;;;5046504;28;20240;-76
2022/08/03 10:11:38;;;;;;;1.90;1.80;;;35.20;40.10;;;;;;5042882;28;20199;-76
2022/08/03 10:14:17;;;;;;;1.50;1.40;;;35.10;41.00;;;;;;5051976;28;20549;-76
2022/08/03 10:16:46;;;;;;;3.10;1.57;;;35.10;40.40;;;;;;5050148;28;20198;-76
2022/08/03 10:19:14;;;;;;;2.33;1.60;;;35.10;40.40;;;;;;5043115;28;20575;-76
2022/08/03 10:21:48;;;;;;;2.83;1.70;;;35.00;41.10;;;;;;5044588;28;20186;-77
2022/08/03 10:24:19;;;;;;;3.17;1.60;;;35.10;41.10;;;;;;5061041;28;20207;-77
2022/08/03 10:26:48;;;;;;;4.77;2.10;;;35.20;40.90;;;;;;5051728;28;20199;-77
2022/08/03 10:29:27;;;;;;;1.97;1.87;;;35.20;40.80;;;;;;5056834;28;20206;-77
2022/08/03 10:31:57;;;;;;;1.63;1.53;;;35.30;41.40;;;;;;5042869;28;20211;-74
2022/08/03 10:34:26;;;;;;;2.17;1.70;;;35.30;41.20;;;;;;5052324;28;20300;-74
2022/08/03 10:36:57;;;;;;;3.77;1.50;;;35.40;41.30;;;;;;5042936;28;20214;-74
2022/08/03 10:39:28;;;;;;;2.83;1.70;;;35.50;41.20;;;;;;5037477;28;20203;-75
2022/08/03 10:41:57;;;;;;;2.10;1.90;;;35.60;40.40;;;;;;5046671;28;20203;-76
2022/08/03 10:44:36;;;;;;;2.77;1.60;;;35.70;40.60;;;;;;5049030;28;20202;-76
2022/08/03 10:47:03;;;;;;;2.80;1.80;;;35.70;40.00;;;;;;5048556;28;20290;-76
2022/08/03 10:49:32;;;;;;;3.43;2.00;;;35.70;40.00;;;;;;5063574;28;20276;-76
2022/08/03 10:52:03;;;;;;;1.97;1.50;;;35.70;39.50;;;;;;5051252;28;20211;-76
2022/08/03 10:57:44;;;;;;;1.30;1.20;;;35.70;40.00;;;;;;5044509;28;20662;-76
2022/08/03 11:00:17;;;;;;;3.13;1.30;;;35.80;39.80;;;;;;5057772;28;20535;-75
2022/08/03 11:03:05;;;;;;;3.80;1.80;;;35.70;39.80;;;;;;5049746;28;20198;-75
2022/08/03 11:05:38;;;;;;;5.03;1.60;;;35.70;40.20;;;;;;5045193;28;20203;-75
2022/08/03 11:08:29;;;;;;;2.57;2.00;;;35.70;40.30;;;;;;5060019;28;20229;-75
2022/08/03 11:11:16;;;;;;;3.27;1.70;;;35.70;39.30;;;;;;5054452;28;20210;-75
2022/08/03 11:14:03;;;;;;;4.53;1.87;;;35.80;40.20;;;;;;5042569;28;20214;-75
2022/08/03 11:16:34;;;;;;;6.33;1.70;;;35.90;40.00;;;;;;5044141;28;20207;-75
2022/08/03 11:19:04;;;;;;;3.70;1.50;;;36.00;40.50;;;;;;5045485;28;20553;-75
2022/08/03 11:21:49;;;;;;;4.27;1.60;;;36.10;40.20;;;;;;5036660;28;20527;-76
2022/08/03 11:24:35;;;;;;;6.60;2.20;;;36.20;38.60;;;;;;5045492;28;20320;-75
2022/08/03 11:27:17;;;;;;;3.20;1.40;;;36.30;38.70;;;;;;5042655;28;20186;-75
2022/08/03 11:29:57;;;;;;;3.73;1.60;;;36.30;38.10;;;;;;5047589;28;20281;-75
2022/08/03 11:32:36;;;;;;;3.03;1.50;;;36.20;38.20;;;;;;5038124;28;20242;-75
2022/08/03 11:35:24;;;;;;;8.40;1.63;;;36.20;39.10;;;;;;5047118;28;20260;-75
2022/08/03 11:37:57;;;;;;;4.30;1.47;;;36.20;39.20;;;;;;5049863;28;20199;-75
2022/08/03 11:40:50;;;;;;;1.57;1.47;;;36.20;39.10;;;;;;5061291;28;20203;-75
2022/08/03 11:43:29;;;;;;;1.50;1.40;;;36.30;38.60;;;;;;5047383;28;20212;-75
2022/08/03 11:46:04;;;;;;;1.93;1.40;;;36.40;38.80;;;;;;5054916;28;20314;-75
2022/08/03 11:48:42;;;;;;;4.97;1.40;;;36.50;38.70;;;;;;5052105;28;20735;-76
2022/08/03 11:51:24;;;;;;;2.30;1.30;;;36.50;38.50;;;;;;5049327;28;20215;-76
2022/08/03 11:54:00;;;;;;;2.53;1.57;;;36.50;38.30;;;;;;5045380;28;20237;-75
2022/08/03 11:56:28;;;;;;;1.50;1.40;;;36.40;38.90;;;;;;5054469;28;20355;-75
2022/08/03 11:58:57;;;;;;;4.03;1.50;;;36.30;38.60;;;;;;5056103;28;20687;-75
2022/08/03 12:01:44;;;;;;;1.23;1.13;;;36.30;38.60;;;;;;5044943;28;20195;-76
2022/08/03 12:04:11;;;;;;;2.83;1.20;;;36.40;39.20;;;;;;5054113;28;20221;-75
2022/08/03 12:06:54;;;;;;;4.60;1.27;;;36.50;37.80;;;;;;5043988;28;20565;-76
2022/08/03 12:09:21;;;;;;;1.33;1.23;;;36.50;36.50;;;;;;5050845;28;20210;-76
2022/08/03 12:11:50;;;;;;;1.67;1.30;;;36.50;37.70;;;;;;5038358;28;20200;-75
2022/08/03 12:14:28;;;;;;;2.67;1.30;;;36.50;37.60;;;;;;5048732;28;20195;-75
2022/08/03 12:17:15;;;;;;;1.43;1.33;;;36.50;38.10;;;;;;5040789;28;20296;-75
2022/08/03 12:19:44;;;;;;;3.53;1.70;;;36.60;37.90;;;;;;5045827;28;20207;-76
2022/08/03 12:22:11;;;;;;;1.60;1.30;;;36.60;38.60;;;;;;5054218;28;20221;-76
2022/08/03 12:24:43;;;;;;;1.73;1.60;;;36.50;38.80;;;;;;5061185;28;20203;-76
2022/08/03 12:27:23;;;;;;;6.38;1.55;;;36.60;38.90;;;;;;5060459;28;20241;-76
2022/08/03 12:29:53;;;;;;;2.90;1.42;;;36.60;38.80;;;;;;5063141;28;20206;-76
2022/08/03 12:32:26;;;;;;;2.92;1.50;;;36.60;38.80;;;;;;5044618;28;20203;-76
2022/08/03 12:34:57;;;;;;;3.30;1.48;;;36.70;38.80;;;;;;5054755;28;20219;-76
2022/08/03 12:37:26;;;;;;;1.67;1.58;;;36.80;38.40;;;;;;5060973;28;20199;-76
2022/08/03 12:39:58;;;;;;;1.67;1.45;;;36.80;37.00;;;;;;5050075;28;20614;-72
2022/08/03 12:42:34;;;;;;;1.45;1.35;;;36.80;36.50;;;;;;5039425;28;20207;-73
2022/08/03 12:45:19;;;;;;;1.58;1.38;;;36.70;37.00;;;;;;5044940;28;20202;-73
2022/08/03 12:47:57;;;;;;;2.20;1.27;;;36.70;37.30;;;;;;5045333;28;20217;-74
2022/08/03 12:50:26;;;;;;;1.63;1.40;;;36.70;37.20;;;;;;5045163;28;20707;-75
2022/08/03 12:52:54;;;;;;;1.20;1.15;;;36.70;37.50;;;;;;5050152;28;20633;-73
2022/08/03 12:55:22;;;;;;;4.80;1.38;;;36.70;37.00;;;;;;5066310;28;20245;-74
2022/08/03 12:57:49;;;;;;;4.90;1.38;;;36.60;37.10;;;;;;5047247;28;20629;-74
2022/08/03 13:00:18;;;;;;;2.22;1.30;;;36.60;36.60;;;;;;5048253;28;20243;-75
2022/08/03 13:03:07;;;;;;;3.05;1.50;;;36.60;37.40;;;;;;5046379;28;20202;-75
2022/08/03 13:05:56;;;;;;;1.77;1.50;;;36.60;37.60;;;;;;5047855;28;20195;-75
2022/08/03 13:08:24;;;;;;;3.63;1.55;;;36.60;37.30;;;;;;5045287;28;20211;-76
2022/08/03 13:10:52;;;;;;;2.67;1.13;;;36.60;37.60;;;;;;5049284;28;20569;-75
2022/08/03 13:13:38;;;;;;;3.03;1.48;;;36.60;37.50;;;;;;5027704;28;20307;-72
2022/08/03 13:16:05;;;;;;;4.32;1.55;;;36.70;37.20;;;;;;5044475;28;20218;-73
2022/08/03 13:18:32;;;;;;;1.55;1.45;;;36.60;37.00;;;;;;5044223;28;20195;-73
2022/08/03 13:20:59;;;;;;;2.72;1.52;;;36.60;37.30;;;;;;5044265;28;20195;-74
2022/08/03 13:23:26;;;;;;;2.20;1.50;;;36.60;37.80;;;;;;5061913;28;20652;-74
2022/08/03 13:25:54;;;;;;;1.75;1.55;;;36.60;38.70;;;;;;5044717;28;20632;-73